Currently 65°F in Temecula, California, USA
65°F
68°F / 65°F
calm
0.00"
Sunday, July 25, 2021 3:24 AM PDT

Temecula, California Weather Summary
Last 36 Hours

Temperature Winds Hourly Humidity Dewpoint
Time Report Norm Report Norm Max Gusts Precip. Rpt. Norm Rpt. Norm Pressure
1Sun 03:24 AM  65.4°F  65°F  calm  calm  4 mph  0.00"  92%  86%  63°F  61°F  29.96"
3Sun 03:21 AM  65.4°F  65°F  1 mph SE  calm  6 mph  ----  92%  86%  63°F  61°F  29.96"
Sun 03:00 AM  65.7°F  65°F  3 mph SE  1 mph  5 mph  0.00"  91%  86%  63°F  61°F  29.95"
Sun 02:00 AM  66.3°F  66°F  calm  1 mph  none  0.00"  90%  84%  63°F  61°F  29.96"
Sun 01:00 AM  67.1°F  67°F  calm  1 mph  8 mph  0.00"  88%  82%  63°F  61°F  29.96"
2Sun 12:00 AM  68.1°F  68°F  2 mph S  1 mph  9 mph  0.00"  86%  80%  64°F  61°F  29.99"
Sat 11:00 PM  69.4°F  69°F  5 mph S  1 mph  7 mph  0.00"  83%  77%  64°F  61°F  29.98"
Sat 10:00 PM  70.6°F  71°F  calm  2 mph  8 mph  0.00"  80%  73%  64°F  61°F  29.98"
Sat 09:00 PM  72.1°F  73°F  3 mph S  3 mph  10 mph  0.00"  76%  67%  64°F  61°F  29.96"
Sat 08:00 PM  74.6°F  76°F  3 mph S  4 mph  9 mph  0.00"  70%  60%  64°F  61°F  29.94"
Sat 07:00 PM  78.0°F  80°F  3 mph SW  6 mph  11 mph  0.00"  61%  52%  63°F  60°F  29.91"
Sat 06:00 PM  80.0°F  84°F  1 mph SW  7 mph  16 mph  0.00"  57%  46%  63°F  60°F  29.92"
Sat 05:00 PM  84.1°F  87°F  8 mph SW  9 mph  19 mph  0.00"  52%  41%  64°F  60°F  29.93"
Sat 04:00 PM  85.2°F  89°F  4 mph SW  9 mph  14 mph  0.00"  51%  39%  65°F  60°F  29.94"
Sat 03:00 PM  87.4°F  89°F  5 mph SW  9 mph  13 mph  0.00"  47%  38%  64°F  60°F  29.95"
Sat 02:00 PM  87.3°F  90°F  6 mph S  9 mph  13 mph  0.00"  46%  38%  63°F  60°F  29.96"
Sat 01:00 PM  81.9°F  88°F  5 mph SW  8 mph  10 mph  0.00"  57%  40%  65°F  60°F  29.98"
Sat 12:00 PM  79.4°F  86°F  6 mph SW  7 mph  9 mph  0.00"  62%  44%  65°F  61°F  30.00"
Sat 11:00 AM  78.2°F  82°F  5 mph SW  4 mph  9 mph  0.00"  67%  51%  66°F  62°F  30.01"
Sat 10:00 AM  75.1°F  76°F  4 mph NW  2 mph  7 mph  0.00"  73%  63%  66°F  62°F  30.01"
Sat 09:00 AM  70.5°F  71°F  calm  1 mph  4 mph  0.00"  84%  75%  65°F  62°F  30.02"
Sat 08:00 AM  67.3°F  66°F  2 mph S  1 mph  3 mph  0.00"  90%  85%  64°F  61°F  30.02"
Sat 07:00 AM  65.1°F  64°F  calm  calm  none  0.00"  91%  88%  62°F  60°F  30.00"
Sat 06:00 AM  64.7°F  64°F  calm  calm  none  0.00"  92%  88%  62°F  60°F  29.99"
Sat 05:00 AM  65.0°F  64°F  calm  calm  none  0.00"  92%  87%  63°F  60°F  29.98"
Sat 04:00 AM  65.2°F  65°F  calm  calm  none  0.00"  93%  86%  63°F  60°F  29.99"
Sat 03:00 AM  65.7°F  65°F  calm  calm  7 mph  0.00"  92%  85%  63°F  61°F  30.01"
Sat 02:00 AM  66.4°F  66°F  calm  1 mph  5 mph  0.00"  90%  84%  63°F  61°F  30.01"
Sat 01:00 AM  67.4°F  67°F  calm  1 mph  5 mph  0.00"  87%  82%  63°F  61°F  30.01"
Sat 12:00 AM  68.4°F  68°F  calm  1 mph  4 mph  0.00"  86%  80%  64°F  61°F  30.02"
Fri 11:00 PM  69.1°F  69°F  calm  1 mph  6 mph  0.00"  84%  77%  64°F  61°F  30.02"
Fri 10:00 PM  70.1°F  71°F  calm  2 mph  6 mph  0.00"  83%  73%  64°F  61°F  30.03"
Fri 09:00 PM  71.9°F  73°F  1 mph S  3 mph  6 mph  0.00"  79%  67%  65°F  61°F  30.01"
Fri 08:00 PM  74.3°F  76°F  1 mph SE  4 mph  13 mph  0.00"  74%  59%  65°F  60°F  29.99"
Fri 07:00 PM  78.9°F  80°F  2 mph S  6 mph  17 mph  0.00"  64%  52%  65°F  60°F  29.97"
Fri 06:00 PM  85.0°F  84°F  6 mph SW  7 mph  14 mph  0.00"  50%  45%  64°F  60°F  29.96"
Fri 05:00 PM  88.3°F  87°F  3 mph SW  8 mph  17 mph  0.00"  46%  41%  65°F  60°F  29.96"
Fri 04:00 PM  89.6°F  89°F  10 mph S  9 mph  18 mph  0.00"  45%  39%  65°F  60°F  29.98"

  1. Current weather data. No green row appears if the current weather data is also the high or low for the current day.
  2. High temperature for the current day.
  3. Low temperature for the current day.

The Temecula weather pages are a service of WeatherCurrents. Temecula, California is located in the Temecula Valley, in southwestern Riverside County, along the Interstate 15 highway. The Temecula Valley's rolling hills are home to the Temecula wine country, vineyards, golf courses, a casino resort, and Old Town Temecula.
Copyright ©2021  WeatherCurrents. All rights reserved. - Submit questions and comments - Privacy Policy

This page automatically refreshes every 10 minutes.